Current Conditions
Partly Cloudy
Conditions




Pressure
1007.92 (hPa) - 29.76 (inHG)
Visibility

10.0 (km) - 6.2 (miles)
   Temperature
31  °C
88°F
23  °C
Dewpoint
62  %
 Humidity
   Wind Speed
24  km/h
13  kts
15  mph
6.7  m/s
   Wind Direction
 30°
North North
East
   Airport Data
WSSL
Location Seletar 6 km (3.73 mi)
Metar :WSSL 261000Z 03013KT 9999 FEW020 BKN300 31/23 Q1008
Wed 26th February 18:00 pm
   Raw Metar Info
Raw METAR is the most common format in the world for the transmission of observational weather data. It is highly standardized through the International Civil Aviation Organization (ICAO), which allows it to be understood throughout most of the world.
   API Info
Data Provided by
https://www.checkwx.com/weather/WSSL
   © Info
CSS/SVG/PHP scripts were developed by weather34.com for use in the weather34 template © 2015-2020

Guide Info provided by Metar-Wikipedia